Terminal Aerodrome Forecast
Issued by NWS

Home | Current Version | Previous Version | Text Only | Print | Product List | Glossary Off
Versions: 1 2 3 4 5 6 7 8 9 10 11 12 13 14 15 16 17

000
FTUS43 KBIS 230526
TAFJMS
TAF
KJMS 230526Z 2306/2406 22020G30KT P6SM SHRA VCTS SCT035 OVC080CB
     FM231200 11011G18KT P6SM VCTS OVC090CB
     FM231600 14009KT P6SM SHRA VCTS SCT030 OVC045CB
     FM232100 27010KT P6SM VCTS SCT090CB
     FM240000 29011KT P6SM FEW250
     FM240300 28007KT P6SM SKC=

USA.gov is the U.S. government's official web portal to all federal, state and local government web resources and services.